createdAt,value
2019-03-29T00:02:34.037Z,102128.30
2019-03-29T00:05:12.747Z,102126.80
2019-03-29T00:08:18.678Z,102126.23
2019-03-29T00:11:03.440Z,102130.14
2019-03-29T00:13:49.293Z,102135.30
2019-03-29T00:16:26.009Z,102136.23
2019-03-29T00:19:01.326Z,102137.06
2019-03-29T00:21:37.232Z,102142.16
2019-03-29T00:24:33.400Z,102135.41
2019-03-29T00:27:12.820Z,102134.89
2019-03-29T00:29:49.985Z,102132.44
2019-03-29T00:32:29.251Z,102130.08
2019-03-29T00:35:06.014Z,102133.24
2019-03-29T00:37:52.962Z,102130.55
2019-03-29T00:40:17.742Z,102133.36
2019-03-29T00:42:53.798Z,102133.83
2019-03-29T00:45:38.520Z,102132.63
2019-03-29T00:48:22.196Z,102127.00
2019-03-29T00:51:12.162Z,102129.46
2019-03-29T00:53:46.041Z,102133.58
2019-03-29T00:56:20.086Z,102129.20
2019-03-29T00:58:58.392Z,102133.08
2019-03-29T01:01:29.841Z,102131.80
2019-03-29T01:04:11.515Z,102127.84
2019-03-29T01:06:46.379Z,102124.58
2019-03-29T01:09:24.690Z,102128.67
2019-03-29T01:11:58.588Z,102123.48
2019-03-29T01:14:30.742Z,102117.73
2019-03-29T01:17:07.473Z,102117.48
2019-03-29T01:19:43.259Z,102116.38
2019-03-29T01:22:20.237Z,102119.56
2019-03-29T01:24:51.580Z,102114.80
2019-03-29T01:27:24.895Z,102110.59
2019-03-29T01:30:04.803Z,102110.41
2019-03-29T01:32:42.130Z,102109.55
2019-03-29T01:35:13.365Z,102111.56
2019-03-29T01:37:52.613Z,102110.92
2019-03-29T01:40:28.119Z,102108.81
2019-03-29T01:43:02.364Z,102110.89
2019-03-29T01:45:33.836Z,102110.08
2019-03-29T01:48:08.536Z,102101.38
2019-03-29T01:50:41.219Z,102100.89
2019-03-29T01:53:12.686Z,102094.23
2019-03-29T01:55:48.762Z,102093.77
2019-03-29T01:58:20.432Z,102096.28
2019-03-29T02:00:52.986Z,102091.87
2019-03-29T02:03:26.012Z,102092.47
2019-03-29T02:05:58.834Z,102088.17
2019-03-29T02:08:35.839Z,102081.73
2019-03-29T02:11:09.299Z,102090.42
2019-03-29T02:13:41.860Z,102081.64
2019-03-29T02:16:15.397Z,102082.98
2019-03-29T02:18:51.965Z,102081.00
2019-03-29T02:21:31.814Z,102085.88
2019-03-29T02:24:10.031Z,102085.64
2019-03-29T02:26:50.468Z,102084.66
2019-03-29T02:29:24.587Z,102083.24
2019-03-29T02:31:57.032Z,102075.24
2019-03-29T02:34:28.720Z,102072.39
2019-03-29T02:37:05.218Z,102077.45
2019-03-29T02:39:42.771Z,102068.75
2019-03-29T02:42:11.563Z,102063.14
2019-03-29T02:44:43.238Z,102058.95
2019-03-29T02:47:17.865Z,102068.37
2019-03-29T02:49:54.222Z,102064.50
2019-03-29T02:52:27.805Z,102068.98
2019-03-29T02:54:59.895Z,102064.22
2019-03-29T02:57:32.218Z,102063.84
2019-03-29T03:00:10.580Z,102061.52
2019-03-29T03:02:43.060Z,102054.66
2019-03-29T03:05:16.021Z,102057.42
2019-03-29T03:07:49.015Z,102058.92
2019-03-29T03:10:23.420Z,102058.69
2019-03-29T03:12:57.331Z,102059.17
2019-03-29T03:15:30.676Z,102056.31
2019-03-29T03:18:07.795Z,102056.95
2019-03-29T03:20:40.598Z,102057.90
2019-03-29T03:23:14.732Z,102056.02
2019-03-29T03:25:46.378Z,102057.21
2019-03-29T03:28:21.257Z,102052.14
2019-03-29T03:30:55.213Z,102054.59
2019-03-29T03:33:26.986Z,102055.84
2019-03-29T03:36:00.539Z,102045.95
2019-03-29T03:38:36.546Z,102044.45
2019-03-29T03:41:12.266Z,102047.16
2019-03-29T03:43:44.223Z,102046.45
2019-03-29T03:46:15.791Z,102033.97
2019-03-29T03:48:50.005Z,102037.91
2019-03-29T03:51:23.574Z,102045.17
2019-03-29T03:53:58.922Z,102040.67
2019-03-29T03:56:39.326Z,102043.70
2019-03-29T03:59:17.036Z,102043.75
2019-03-29T04:01:48.861Z,102045.66
2019-03-29T04:04:23.613Z,102050.17
2019-03-29T04:06:55.868Z,102040.04
2019-03-29T04:09:49.441Z,102041.62
2019-03-29T04:12:12.585Z,102047.78
2019-03-29T04:14:47.138Z,102047.00
2019-03-29T04:17:23.468Z,102044.14
2019-03-29T04:19:59.340Z,102042.06
2019-03-29T04:22:37.310Z,102042.21
2019-03-29T04:25:11.936Z,102044.28
2019-03-29T04:27:51.858Z,102041.35
2019-03-29T04:30:26.434Z,102037.67
2019-03-29T04:33:05.127Z,102042.98
2019-03-29T04:35:39.823Z,102044.80
2019-03-29T04:38:22.265Z,102045.20
2019-03-29T04:40:58.686Z,102046.72
2019-03-29T04:43:36.730Z,102043.35
2019-03-29T04:46:18.542Z,102045.33
2019-03-29T04:49:14.406Z,102039.63
2019-03-29T04:51:47.548Z,102044.05
2019-03-29T04:54:22.320Z,102039.47
2019-03-29T04:56:55.388Z,102050.55
2019-03-29T04:59:29.485Z,102044.13
2019-03-29T05:02:04.627Z,102049.98
2019-03-29T05:04:56.875Z,102055.02
2019-03-29T05:07:28.683Z,102059.55
2019-03-29T05:10:20.010Z,102057.41
2019-03-29T05:12:41.276Z,102056.48
2019-03-29T05:15:13.701Z,102054.10
2019-03-29T05:17:47.738Z,102054.00
2019-03-29T05:20:19.718Z,102063.84
2019-03-29T05:22:52.095Z,102060.54
2019-03-29T05:25:25.575Z,102061.61
2019-03-29T05:27:58.051Z,102061.45
2019-03-29T05:30:35.588Z,102066.77
2019-03-29T05:33:19.803Z,102062.06
2019-03-29T05:35:51.211Z,102063.79
2019-03-29T05:38:31.953Z,102061.36
2019-03-29T05:41:11.800Z,102061.26
2019-03-29T05:44:00.438Z,102062.09
2019-03-29T05:46:35.969Z,102062.97
2019-03-29T05:49:16.091Z,102060.77
2019-03-29T05:51:53.073Z,102064.23
2019-03-29T05:54:26.204Z,102064.26
2019-03-29T05:56:57.663Z,102061.23
2019-03-29T05:59:29.486Z,102066.28
2019-03-29T06:02:02.381Z,102070.33
2019-03-29T06:04:36.723Z,102068.31
2019-03-29T06:07:11.204Z,102058.50
2019-03-29T06:10:02.115Z,102065.15
2019-03-29T06:12:35.805Z,102071.23
2019-03-29T06:15:09.855Z,102067.58
2019-03-29T06:17:49.008Z,102066.73
2019-03-29T06:20:22.757Z,102070.70
2019-03-29T06:22:59.142Z,102068.09
2019-03-29T06:25:35.405Z,102066.91
2019-03-29T06:28:08.750Z,102059.12
2019-03-29T06:30:51.835Z,102067.62
2019-03-29T06:33:23.796Z,102063.61
2019-03-29T06:35:58.712Z,102060.28
2019-03-29T06:38:39.789Z,102066.48
2019-03-29T06:41:12.834Z,102065.84
2019-03-29T06:43:57.083Z,102064.77
2019-03-29T06:46:29.222Z,102059.39
2019-03-29T06:49:00.777Z,102061.78
2019-03-29T06:51:34.023Z,102059.12
2019-03-29T06:54:11.006Z,102059.97
2019-03-29T06:56:49.315Z,102061.56
2019-03-29T06:59:23.349Z,102063.50
2019-03-29T07:01:57.755Z,102056.13
2019-03-29T07:04:29.399Z,102062.98
2019-03-29T07:07:00.978Z,102061.89
2019-03-29T07:09:50.850Z,102056.54
2019-03-29T07:12:22.297Z,102055.50
2019-03-29T07:14:55.284Z,102056.86
2019-03-29T07:17:26.942Z,102061.53
2019-03-29T07:20:01.150Z,102064.37
2019-03-29T07:22:34.631Z,102062.62
2019-03-29T07:25:10.274Z,102065.66
2019-03-29T07:27:45.796Z,102055.66
2019-03-29T07:30:17.015Z,102063.81
2019-03-29T07:32:50.978Z,102060.02
2019-03-29T07:35:25.486Z,102061.53
2019-03-29T07:37:58.957Z,102063.29
2019-03-29T07:40:30.740Z,102056.77
2019-03-29T07:43:04.447Z,102054.38
2019-03-29T07:45:39.055Z,102054.33
2019-03-29T07:48:12.040Z,102053.04
2019-03-29T07:50:48.900Z,102057.73
2019-03-29T07:53:20.441Z,102057.48
2019-03-29T07:56:03.303Z,102058.13
2019-03-29T07:58:39.966Z,102055.88
2019-03-29T08:01:12.103Z,102059.58
2019-03-29T08:03:43.951Z,102057.34
2019-03-29T08:06:22.028Z,102053.85
2019-03-29T08:08:53.526Z,102054.14
2019-03-29T08:11:27.627Z,102052.23
2019-03-29T08:14:00.850Z,102057.19
2019-03-29T08:16:36.070Z,102055.03
2019-03-29T08:19:09.979Z,102053.03
2019-03-29T08:21:47.195Z,102051.73
2019-03-29T08:24:20.622Z,102057.08
2019-03-29T08:26:53.606Z,102050.28
2019-03-29T08:29:25.001Z,102049.34
2019-03-29T08:32:01.765Z,102046.05
2019-03-29T08:34:39.298Z,102045.03
2019-03-29T08:37:11.705Z,102047.73
2019-03-29T08:39:50.391Z,102042.75
2019-03-29T08:42:21.937Z,102040.27
2019-03-29T08:45:19.230Z,102042.63
2019-03-29T08:48:11.736Z,102047.84
2019-03-29T08:51:02.283Z,102050.67
2019-03-29T08:53:35.903Z,102053.64
2019-03-29T08:56:15.458Z,102050.86
2019-03-29T08:58:50.324Z,102048.45
2019-03-29T09:01:26.957Z,102041.51
2019-03-29T09:04:21.696Z,102042.66
2019-03-29T09:06:56.223Z,102044.70
2019-03-29T09:09:28.360Z,102040.70
2019-03-29T09:12:13.645Z,102026.98
2019-03-29T09:14:48.741Z,102029.66
2019-03-29T09:17:55.727Z,102032.29
2019-03-29T09:20:35.880Z,102031.37
2019-03-29T09:23:15.244Z,102035.09
2019-03-29T09:25:54.348Z,102027.20
2019-03-29T09:28:35.330Z,102028.95
2019-03-29T09:31:08.206Z,102024.88
2019-03-29T09:33:50.723Z,102021.67
2019-03-29T09:36:28.828Z,102022.23
2019-03-29T09:39:06.920Z,102021.68
2019-03-29T09:41:42.892Z,102025.30
2019-03-29T09:44:25.014Z,102022.03
2019-03-29T09:46:56.668Z,102023.13
2019-03-29T09:49:39.703Z,102019.77
2019-03-29T09:52:15.979Z,102022.23
2019-03-29T09:54:48.924Z,102019.82
2019-03-29T09:57:36.985Z,102022.00
2019-03-29T09:59:57.014Z,102018.36
2019-03-29T10:02:30.431Z,102016.63
2019-03-29T10:05:31.016Z,102020.70
2019-03-29T10:08:06.497Z,102018.48
2019-03-29T10:11:06.939Z,102015.27
2019-03-29T10:14:33.471Z,102018.54
2019-03-29T10:17:06.978Z,102009.96
2019-03-29T10:19:42.372Z,102013.94
2019-03-29T10:22:18.288Z,102008.17
2019-03-29T10:25:02.913Z,102009.37
2019-03-29T10:27:51.287Z,102002.58
2019-03-29T10:30:59.179Z,102004.17
2019-03-29T10:33:40.570Z,101996.59
2019-03-29T10:36:17.844Z,101997.47
2019-03-29T10:39:00.529Z,101995.91
2019-03-29T10:41:34.606Z,101986.32
2019-03-29T10:44:37.172Z,101983.45
2019-03-29T10:47:19.771Z,101990.83
2019-03-29T10:50:04.933Z,101977.83
2019-03-29T10:52:37.916Z,101970.91
2019-03-29T10:55:11.770Z,101964.74
2019-03-29T10:57:48.708Z,101964.88
2019-03-29T11:00:40.220Z,101955.72
2019-03-29T11:03:12.215Z,101953.23
2019-03-29T11:06:07.535Z,101952.13
2019-03-29T11:08:54.007Z,101947.12
2019-03-29T11:11:28.083Z,101947.55
2019-03-29T11:14:34.945Z,101940.70
2019-03-29T11:17:17.203Z,101935.81
2019-03-29T11:19:53.739Z,101928.91
2019-03-29T11:22:36.205Z,101930.62
2019-03-29T11:25:12.219Z,101926.38
2019-03-29T11:27:47.569Z,101922.88
2019-03-29T11:30:21.150Z,101914.53
2019-03-29T11:32:55.461Z,101921.19
2019-03-29T11:35:27.574Z,101907.95
2019-03-29T11:37:59.548Z,101905.73
2019-03-29T11:40:35.478Z,101903.44
2019-03-29T11:43:07.574Z,101902.91
2019-03-29T11:45:44.638Z,101897.80
2019-03-29T11:48:22.450Z,101898.45
2019-03-29T11:50:59.414Z,101891.47
2019-03-29T11:53:33.015Z,101888.82
2019-03-29T11:56:17.897Z,101886.05
2019-03-29T11:58:52.045Z,101880.36
2019-03-29T12:01:28.978Z,101873.59
2019-03-29T12:04:05.555Z,101878.66
2019-03-29T12:06:48.456Z,101875.00
2019-03-29T12:09:20.956Z,101867.17
2019-03-29T12:12:13.022Z,101867.16
2019-03-29T12:14:49.841Z,101861.95
2019-03-29T12:17:33.798Z,101854.93
2019-03-29T12:20:07.344Z,101852.17
2019-03-29T12:22:42.364Z,101838.59
2019-03-29T12:25:15.582Z,101838.59
2019-03-29T12:28:17.166Z,101833.23
2019-03-29T12:30:52.391Z,101827.12
2019-03-29T12:33:26.406Z,101828.69
2019-03-29T12:35:58.309Z,101819.69
2019-03-29T12:38:38.461Z,101819.70
2019-03-29T12:41:10.404Z,101815.88
2019-03-29T12:43:54.841Z,101813.72
2019-03-29T12:46:25.270Z,101803.58
2019-03-29T12:49:00.052Z,101798.41
2019-03-29T12:51:35.429Z,101793.16
2019-03-29T12:54:17.187Z,101787.48
2019-03-29T12:56:54.305Z,101782.37
2019-03-29T12:59:29.137Z,101777.85
2019-03-29T13:02:00.906Z,101773.89
2019-03-29T13:04:47.557Z,101777.66
2019-03-29T13:07:19.259Z,101773.71
2019-03-29T13:09:52.967Z,101766.65
2019-03-29T13:12:32.953Z,101765.90
2019-03-29T13:15:07.805Z,101753.57
2019-03-29T13:18:02.541Z,101751.41
2019-03-29T13:21:02.880Z,101743.64
2019-03-29T13:23:42.967Z,101749.63
2019-03-29T13:26:16.123Z,101740.44
2019-03-29T13:28:56.775Z,101739.73
2019-03-29T13:31:30.187Z,101734.42
2019-03-29T13:34:19.443Z,101736.73
2019-03-29T13:36:56.907Z,101733.77
2019-03-29T13:40:25.116Z,101728.64
2019-03-29T13:42:56.693Z,101721.21
2019-03-29T13:45:35.615Z,101718.38
2019-03-29T13:48:10.153Z,101717.45
2019-03-29T13:50:43.855Z,101716.92
2019-03-29T13:53:19.675Z,101712.56
2019-03-29T13:56:15.768Z,101709.05
2019-03-29T13:58:50.837Z,101710.78
2019-03-29T14:01:24.876Z,101704.81
2019-03-29T14:03:58.052Z,101697.77
2019-03-29T14:07:35.767Z,101692.19
2019-03-29T14:10:16.324Z,101687.83
2019-03-29T14:12:55.931Z,101679.52
2019-03-29T14:15:27.511Z,101677.41
2019-03-29T14:18:07.261Z,101675.06
2019-03-29T14:20:45.461Z,101675.67
2019-03-29T14:23:19.876Z,101673.94
2019-03-29T14:25:55.938Z,101669.95
2019-03-29T14:28:33.925Z,101664.86
2019-03-29T14:31:15.287Z,101661.23
2019-03-29T14:33:50.753Z,101663.53
2019-03-29T14:36:32.463Z,101653.20
2019-03-29T14:39:23.370Z,101653.16
2019-03-29T14:41:58.004Z,101650.21
2019-03-29T14:44:33.873Z,101645.90
2019-03-29T14:47:22.491Z,101635.36
2019-03-29T14:50:07.624Z,101637.25
2019-03-29T14:52:48.234Z,101638.30
2019-03-29T14:55:24.429Z,101633.81
2019-03-29T14:57:56.553Z,101635.83
2019-03-29T15:00:43.928Z,101629.13
2019-03-29T15:03:42.688Z,101631.74
2019-03-29T15:06:52.686Z,101631.51
2019-03-29T15:09:31.582Z,101635.68
2019-03-29T15:15:47.065Z,101620.40
2019-03-29T15:18:39.943Z,101620.56
2019-03-29T15:21:30.497Z,101615.73
2019-03-29T15:24:16.049Z,101611.77
2019-03-29T15:26:58.607Z,101602.16
2019-03-29T15:29:30.223Z,101602.38
2019-03-29T15:32:03.106Z,101599.03
2019-03-29T15:34:40.998Z,101593.98
2019-03-29T15:37:20.141Z,101594.83
2019-03-29T15:39:56.147Z,101593.37
2019-03-29T15:42:29.901Z,101585.77
2019-03-29T15:45:01.397Z,101586.26
2019-03-29T15:47:32.799Z,101588.86
2019-03-29T15:50:12.590Z,101583.81
2019-03-29T15:52:44.770Z,101577.44
2019-03-29T15:55:26.367Z,101577.33
2019-03-29T15:58:53.535Z,101584.41
2019-03-29T16:02:39.878Z,101580.00
2019-03-29T16:10:09.549Z,101567.37
2019-03-29T16:13:07.746Z,101572.20
2019-03-29T16:15:57.185Z,101569.50
2019-03-29T16:18:31.365Z,101571.19
2019-03-29T16:21:06.242Z,101564.15
2019-03-29T16:23:50.727Z,101563.45
2019-03-29T16:26:28.395Z,101558.87
2019-03-29T16:28:56.132Z,101554.52
2019-03-29T16:31:28.209Z,101555.47
2019-03-29T16:34:37.179Z,101551.02
2019-03-29T16:37:57.923Z,101554.51
2019-03-29T16:40:40.075Z,101542.05
2019-03-29T16:43:18.261Z,101543.00
2019-03-29T16:45:55.992Z,101544.67
2019-03-29T16:48:41.310Z,101541.75
2019-03-29T16:51:44.855Z,101537.88
2019-03-29T16:54:31.070Z,101529.29
2019-03-29T16:58:02.081Z,101525.83
2019-03-29T17:01:10.820Z,101528.08
2019-03-29T17:04:31.828Z,101529.19
2019-03-29T17:07:07.539Z,101521.59
2019-03-29T17:10:37.162Z,101525.47
2019-03-29T17:13:40.703Z,101526.73
2019-03-29T17:16:47.298Z,101524.33
2019-03-29T17:20:37.798Z,101525.50
2019-03-29T17:23:11.384Z,101518.22
2019-03-29T17:25:48.156Z,101512.44
2019-03-29T17:28:27.780Z,101506.41
2019-03-29T17:31:33.062Z,101503.07
2019-03-29T17:34:13.762Z,101500.36
2019-03-29T17:36:54.579Z,101499.86
2019-03-29T17:39:53.871Z,101503.97
2019-03-29T17:42:30.644Z,101501.41
2019-03-29T17:45:08.911Z,101494.69
2019-03-29T17:47:47.057Z,101494.56
2019-03-29T17:50:28.456Z,101496.35
2019-03-29T17:53:03.802Z,101493.09
2019-03-29T17:55:40.253Z,101495.67
2019-03-29T17:58:19.566Z,101494.19
2019-03-29T18:00:51.582Z,101489.91
2019-03-29T18:03:26.847Z,101496.41
2019-03-29T18:06:06.005Z,101501.69
2019-03-29T18:13:34.799Z,101494.27
2019-03-29T18:30:05.439Z,101505.98
2019-03-29T18:33:55.039Z,101504.81
2019-03-29T18:53:04.012Z,101497.91
2019-03-29T18:56:09.204Z,101496.45
2019-03-29T18:59:17.316Z,101502.74
2019-03-29T19:02:06.542Z,101499.91
2019-03-29T19:04:41.019Z,101499.86
2019-03-29T19:07:21.305Z,101501.13
2019-03-29T19:10:12.903Z,101500.99
2019-03-29T19:13:07.790Z,101498.80
2019-03-29T19:16:24.612Z,101500.50
2019-03-29T19:18:50.767Z,101501.24
2019-03-29T19:25:34.538Z,101494.23
2019-03-29T19:28:19.555Z,101499.20
2019-03-29T19:36:18.422Z,101502.08
2019-03-29T19:44:16.822Z,101495.60
2019-03-29T19:47:13.557Z,101497.77
2019-03-29T19:50:51.368Z,101496.98
2019-03-29T19:54:07.311Z,101490.77
2019-03-29T19:58:56.361Z,101491.19
2019-03-29T20:05:50.537Z,101488.15
2019-03-29T20:13:55.505Z,101490.33
2019-03-29T20:21:49.858Z,101486.14
2019-03-29T20:25:23.888Z,101487.36
2019-03-29T20:33:24.420Z,101490.17
2019-03-29T20:37:14.014Z,101484.41
2019-03-29T20:40:32.222Z,101484.24
2019-03-29T20:43:27.833Z,101489.53
2019-03-29T20:46:10.053Z,101492.83
2019-03-29T20:48:49.670Z,101488.41
2019-03-29T21:17:09.555Z,101473.83
2019-03-29T21:19:47.278Z,101464.88
2019-03-29T21:23:02.161Z,101467.75
2019-03-29T21:27:19.685Z,101469.02
2019-03-29T21:30:25.086Z,101462.28
2019-03-29T21:38:37.471Z,101459.36
2019-03-29T21:59:33.374Z,101440.95
2019-03-29T22:06:59.737Z,101441.41
2019-03-29T22:09:36.751Z,101444.73
2019-03-29T22:12:06.207Z,101445.84
2019-03-29T22:14:45.498Z,101450.59
2019-03-29T22:29:25.118Z,101434.13
2019-03-29T22:32:04.650Z,101432.24
2019-03-29T22:34:37.645Z,101432.89
2019-03-29T22:37:12.360Z,101434.94
2019-03-29T22:39:47.279Z,101427.02
2019-03-29T22:42:21.308Z,101425.23
2019-03-29T22:44:54.390Z,101426.23
2019-03-29T22:48:52.513Z,101426.58
2019-03-29T22:55:25.580Z,101409.73
2019-03-29T22:57:59.162Z,101402.86
2019-03-29T23:00:44.417Z,101413.44
2019-03-29T23:03:24.434Z,101405.95
2019-03-29T23:05:58.251Z,101406.80
2019-03-29T23:08:33.278Z,101401.12
2019-03-29T23:11:08.400Z,101401.20
2019-03-29T23:14:30.315Z,101401.12
2019-03-29T23:18:16.406Z,101399.53
2019-03-29T23:20:52.741Z,101393.51
2019-03-29T23:23:27.926Z,101394.06
2019-03-29T23:26:02.659Z,101402.19
2019-03-29T23:29:42.362Z,101395.36
2019-03-29T23:32:14.203Z,101398.57
2019-03-29T23:39:49.778Z,101400.63
2019-03-29T23:42:24.636Z,101391.53
2019-03-29T23:46:25.350Z,101386.00
